createdAt,value
2023-04-15T00:33:44.703Z,984.71
2023-04-15T00:34:44.374Z,984.73
2023-04-15T00:35:44.389Z,984.70
2023-04-15T00:36:44.388Z,984.74
2023-04-15T00:37:46.044Z,984.74
2023-04-15T00:38:45.336Z,984.73
2023-04-15T00:39:44.331Z,984.73
2023-04-15T00:40:44.348Z,984.78
2023-04-15T00:41:44.331Z,984.76
2023-04-15T00:42:44.352Z,984.76
2023-04-15T00:43:44.358Z,984.80
2023-04-15T00:44:44.295Z,984.79
2023-04-15T00:45:44.342Z,984.79
2023-04-15T00:46:45.293Z,984.74
2023-04-15T00:47:44.298Z,984.71
2023-04-15T00:48:44.270Z,984.74
2023-04-15T00:49:44.277Z,984.73
2023-04-15T00:50:44.249Z,984.76
2023-04-15T00:51:44.316Z,984.73
2023-04-15T00:52:44.259Z,984.77
2023-04-15T00:53:44.234Z,984.75
2023-04-15T00:54:44.271Z,984.75
2023-04-15T00:55:44.234Z,984.77
2023-04-15T00:56:44.247Z,984.78
2023-04-15T00:57:44.198Z,984.79
2023-04-15T00:58:44.224Z,984.77
2023-04-15T00:59:44.200Z,984.75
2023-04-15T01:00:44.181Z,984.81
2023-04-15T01:01:44.268Z,984.72
2023-04-15T01:02:44.257Z,984.74
2023-04-15T01:03:44.323Z,984.78
2023-04-15T01:04:44.177Z,984.69
2023-04-15T01:05:44.150Z,984.72
2023-04-15T01:06:44.166Z,984.72
2023-04-15T01:07:44.137Z,984.72
2023-04-15T01:08:44.136Z,984.71
2023-04-15T01:09:44.138Z,984.69
2023-04-15T01:10:44.117Z,984.73
2023-04-15T01:11:44.119Z,984.70
2023-04-15T01:12:44.100Z,984.66
2023-04-15T01:13:44.096Z,984.67
2023-04-15T01:14:44.115Z,984.68
2023-04-15T01:15:44.153Z,984.65
2023-04-15T01:16:44.086Z,984.71
2023-04-15T01:17:44.095Z,984.64
2023-04-15T01:18:44.052Z,984.69
2023-04-15T01:19:44.053Z,984.67
2023-04-15T01:20:44.070Z,984.64
2023-04-15T01:21:44.073Z,984.65
2023-04-15T01:22:44.059Z,984.70
2023-04-15T01:23:44.013Z,984.65
2023-04-15T01:24:44.023Z,984.63
2023-04-15T01:25:44.003Z,984.66
2023-04-15T01:26:44.699Z,984.52
2023-04-15T01:27:45.044Z,984.68
2023-04-15T01:28:44.008Z,984.55
2023-04-15T01:29:43.999Z,984.65
2023-04-15T01:30:43.965Z,984.59
2023-04-15T01:31:45.040Z,984.66
2023-04-15T01:32:44.072Z,984.61
2023-04-15T01:33:43.984Z,984.55
2023-04-15T01:34:43.955Z,984.60
2023-04-15T01:35:43.990Z,984.51
2023-04-15T01:36:43.946Z,984.59
2023-04-15T01:37:43.938Z,984.62
2023-04-15T01:38:43.967Z,984.58
2023-04-15T01:39:44.918Z,984.53
2023-04-15T01:40:43.915Z,984.52
2023-04-15T01:41:43.897Z,984.56
2023-04-15T01:42:43.933Z,984.49
2023-04-15T01:43:43.896Z,984.53
2023-04-15T01:44:43.869Z,984.63
2023-04-15T01:45:43.868Z,984.60
2023-04-15T01:46:43.941Z,984.58
2023-04-15T01:47:43.946Z,984.59
2023-04-15T01:48:43.868Z,984.61
2023-04-15T01:49:43.861Z,984.56
2023-04-15T01:50:43.855Z,984.59
2023-04-15T01:51:43.849Z,984.45
2023-04-15T01:52:43.866Z,984.50
2023-04-15T01:53:43.840Z,984.51
2023-04-15T01:54:43.830Z,984.47
2023-04-15T01:55:43.825Z,984.48
2023-04-15T01:56:43.800Z,984.43
2023-04-15T01:57:43.824Z,984.44
2023-04-15T01:58:43.845Z,984.45
2023-04-15T01:59:43.793Z,984.45
2023-04-15T02:00:43.810Z,984.52
2023-04-15T02:01:43.773Z,984.48
2023-04-15T02:02:43.936Z,984.54
2023-04-15T02:03:43.852Z,984.56
2023-04-15T02:04:43.778Z,984.50
2023-04-15T02:05:43.787Z,984.53
2023-04-15T02:06:44.724Z,984.53
2023-04-15T02:07:43.761Z,984.53
2023-04-15T02:08:43.731Z,984.49
2023-04-15T02:09:43.742Z,984.54
2023-04-15T02:10:43.720Z,984.49
2023-04-15T02:11:43.689Z,984.51
2023-04-15T02:12:44.691Z,984.49
2023-04-15T02:13:43.694Z,984.52
2023-04-15T02:14:43.682Z,984.45
2023-04-15T02:15:43.681Z,984.44
2023-04-15T02:16:43.700Z,984.41
2023-04-15T02:17:43.740Z,984.42
2023-04-15T02:18:43.662Z,984.42
2023-04-15T02:19:43.663Z,984.38
2023-04-15T02:20:43.673Z,984.39
2023-04-15T02:21:43.627Z,984.44
2023-04-15T02:22:43.668Z,984.42
2023-04-15T02:23:43.629Z,984.37
2023-04-15T02:24:43.626Z,984.38
2023-04-15T02:25:43.622Z,984.42
2023-04-15T02:26:44.617Z,984.43
2023-04-15T02:27:43.609Z,984.41
2023-04-15T02:28:43.616Z,984.47
2023-04-15T02:29:43.604Z,984.43
2023-04-15T02:30:43.581Z,984.32
2023-04-15T02:31:43.642Z,984.37
2023-04-15T02:32:43.648Z,984.34
2023-04-15T02:33:43.562Z,984.38
2023-04-15T02:34:43.550Z,984.38
2023-04-15T02:35:43.547Z,984.35
2023-04-15T02:36:43.562Z,984.44
2023-04-15T02:37:43.881Z,984.41
2023-04-15T02:38:43.542Z,984.40
2023-04-15T02:39:43.550Z,984.44
2023-04-15T02:40:43.487Z,984.45
2023-04-15T02:41:43.486Z,984.41
2023-04-15T02:42:43.494Z,984.47
2023-04-15T02:43:43.488Z,984.45
2023-04-15T02:44:43.484Z,984.47
2023-04-15T02:45:43.606Z,984.42
2023-04-15T02:46:43.453Z,984.46
2023-04-15T02:47:43.532Z,984.53
2023-04-15T02:48:43.454Z,984.49
2023-04-15T02:49:43.456Z,984.56
2023-04-15T02:50:43.431Z,984.53
2023-04-15T02:51:43.437Z,984.54
2023-04-15T02:52:43.521Z,984.51
2023-04-15T02:53:43.428Z,984.41
2023-04-15T02:54:43.405Z,984.51
2023-04-15T02:55:43.418Z,984.44
2023-04-15T02:56:43.388Z,984.52
2023-04-15T02:57:43.413Z,984.48
2023-04-15T02:58:43.372Z,984.50
2023-04-15T02:59:43.390Z,984.51
2023-04-15T03:00:43.392Z,984.45
2023-04-15T03:01:43.377Z,984.54
2023-04-15T03:02:43.604Z,984.50
2023-04-15T03:03:43.421Z,984.48
2023-04-15T03:04:43.328Z,984.49
2023-04-15T03:05:43.309Z,984.45
2023-04-15T03:06:43.346Z,984.50
2023-04-15T03:07:43.464Z,984.44
2023-04-15T03:08:43.312Z,984.45
2023-04-15T03:09:43.306Z,984.44
2023-04-15T03:10:43.310Z,984.46
2023-04-15T03:11:43.283Z,984.51
2023-04-15T03:12:43.277Z,984.47
2023-04-15T03:13:43.315Z,984.53
2023-04-15T03:14:43.253Z,984.53
2023-04-15T03:15:43.280Z,984.47
2023-04-15T03:16:43.242Z,984.51
2023-04-15T03:17:43.337Z,984.50
2023-04-15T03:18:43.226Z,984.51
2023-04-15T03:19:43.211Z,984.49
2023-04-15T03:20:43.306Z,984.54
2023-04-15T03:21:43.197Z,984.51
2023-04-15T03:22:43.202Z,984.52
2023-04-15T03:23:43.190Z,984.54
2023-04-15T03:24:43.201Z,984.51
2023-04-15T03:25:43.179Z,984.52
2023-04-15T03:26:43.175Z,984.45
2023-04-15T03:27:43.183Z,984.49
2023-04-15T03:28:43.146Z,984.51
2023-04-15T03:29:43.170Z,984.49
2023-04-15T03:30:43.212Z,984.48
2023-04-15T03:31:43.135Z,984.42
2023-04-15T03:32:43.196Z,984.44
2023-04-15T03:33:43.155Z,984.41
2023-04-15T03:34:43.152Z,984.42
2023-04-15T03:35:43.130Z,984.44
2023-04-15T03:36:43.099Z,984.44
2023-04-15T03:37:43.111Z,984.49
2023-04-15T03:38:43.109Z,984.47
2023-04-15T03:39:43.100Z,984.48
2023-04-15T03:40:43.096Z,984.47
2023-04-15T03:41:43.087Z,984.47
2023-04-15T03:42:43.077Z,984.43
2023-04-15T03:43:43.084Z,984.46
2023-04-15T03:44:43.177Z,984.45
2023-04-15T03:45:43.064Z,984.48
2023-04-15T03:46:43.108Z,984.47
2023-04-15T03:47:43.126Z,984.46
2023-04-15T03:48:43.032Z,984.46
2023-04-15T03:49:43.021Z,984.50
2023-04-15T03:50:43.009Z,984.53
2023-04-15T03:51:43.003Z,984.47
2023-04-15T03:52:43.022Z,984.45
2023-04-15T03:53:42.988Z,984.43
2023-04-15T03:54:43.025Z,984.38
2023-04-15T03:55:42.965Z,984.43
2023-04-15T03:56:43.981Z,984.47
2023-04-15T03:57:43.014Z,984.44
2023-04-15T03:58:42.974Z,984.33
2023-04-15T03:59:42.942Z,984.36
2023-04-15T04:00:42.951Z,984.34
2023-04-15T04:01:43.056Z,984.44
2023-04-15T04:02:42.994Z,984.34
2023-04-15T04:03:43.029Z,984.38
2023-04-15T04:04:42.970Z,984.42
2023-04-15T04:05:42.910Z,984.40
2023-04-15T04:06:42.888Z,984.41
2023-04-15T04:07:42.906Z,984.35
2023-04-15T04:08:42.867Z,984.37
2023-04-15T04:09:42.873Z,984.38
2023-04-15T04:10:42.856Z,984.32
2023-04-15T04:11:42.843Z,984.29
2023-04-15T04:12:42.854Z,984.31
2023-04-15T04:13:42.857Z,984.37
2023-04-15T04:14:42.846Z,984.40
2023-04-15T04:15:42.920Z,984.38
2023-04-15T04:16:42.876Z,984.39
2023-04-15T04:17:42.939Z,984.44
2023-04-15T04:18:42.887Z,984.47
2023-04-15T04:19:42.808Z,984.46
2023-04-15T04:20:42.889Z,984.47
2023-04-15T04:21:42.787Z,984.50
2023-04-15T04:22:42.805Z,984.52
2023-04-15T04:23:42.776Z,984.52
2023-04-15T04:24:42.958Z,984.48
2023-04-15T04:25:43.812Z,984.51
2023-04-15T04:26:42.786Z,984.56
2023-04-15T04:27:42.781Z,984.55
2023-04-15T04:28:42.726Z,984.55
2023-04-15T04:29:42.793Z,984.58
2023-04-15T04:30:42.867Z,984.57
2023-04-15T04:31:42.755Z,984.54
2023-04-15T04:32:42.738Z,984.61
2023-04-15T04:33:42.707Z,984.65
2023-04-15T04:34:42.709Z,984.56
2023-04-15T04:35:42.687Z,984.58
2023-04-15T04:36:42.685Z,984.61
2023-04-15T04:37:42.692Z,984.59
2023-04-15T04:38:42.654Z,984.59
2023-04-15T04:39:42.662Z,984.66
2023-04-15T04:40:42.653Z,984.70
2023-04-15T04:41:42.628Z,984.63
2023-04-15T04:42:43.680Z,984.63
2023-04-15T04:43:42.627Z,984.61
2023-04-15T04:44:42.614Z,984.56
2023-04-15T04:45:42.794Z,984.57
2023-04-15T04:46:42.603Z,984.56
2023-04-15T04:47:42.721Z,984.68
2023-04-15T04:48:42.586Z,984.59
2023-04-15T04:49:42.582Z,984.62
2023-04-15T04:50:42.593Z,984.65
2023-04-15T04:51:42.591Z,984.64
2023-04-15T04:52:42.585Z,984.62
2023-04-15T04:53:42.588Z,984.57
2023-04-15T04:54:42.564Z,984.60
2023-04-15T04:55:42.551Z,984.59
2023-04-15T04:56:42.544Z,984.60
2023-04-15T04:57:42.567Z,984.63
2023-04-15T04:58:42.566Z,984.69
2023-04-15T04:59:42.568Z,984.66
2023-04-15T05:00:42.523Z,984.67
2023-04-15T05:01:42.607Z,984.72
2023-04-15T05:02:42.601Z,984.72
2023-04-15T05:03:42.611Z,984.68
2023-04-15T05:04:42.473Z,984.71
2023-04-15T05:05:43.514Z,984.70
2023-04-15T05:06:42.463Z,984.76
2023-04-15T05:07:42.477Z,984.77
2023-04-15T05:08:43.183Z,984.84
2023-04-15T05:09:42.449Z,984.72
2023-04-15T05:10:42.471Z,984.77
2023-04-15T05:11:42.436Z,984.80
2023-04-15T05:12:42.446Z,984.86
2023-04-15T05:13:42.427Z,984.82
2023-04-15T05:14:43.301Z,984.83
2023-04-15T05:15:42.437Z,984.78
2023-04-15T05:16:42.410Z,984.78
2023-04-15T05:17:42.414Z,984.80
2023-04-15T05:18:42.417Z,984.85
2023-04-15T05:19:42.389Z,984.84
2023-04-15T05:20:42.411Z,984.82
2023-04-15T05:21:42.371Z,984.86
2023-04-15T05:22:42.425Z,984.90
2023-04-15T05:23:42.394Z,984.89
2023-04-15T05:24:42.397Z,984.87
2023-04-15T05:25:42.343Z,984.90
2023-04-15T05:26:42.899Z,984.89
2023-04-15T05:27:43.338Z,984.92
2023-04-15T05:28:42.333Z,984.90
2023-04-15T05:29:42.335Z,984.83
2023-04-15T05:30:42.370Z,984.83
2023-04-15T05:31:42.356Z,984.92
2023-04-15T05:32:42.314Z,984.88
2023-04-15T05:33:42.284Z,984.91
2023-04-15T05:34:42.287Z,984.88
2023-04-15T05:35:42.267Z,984.87
2023-04-15T05:36:42.282Z,984.91
2023-04-15T05:37:42.288Z,984.88
2023-04-15T05:38:42.253Z,984.91
2023-04-15T05:39:42.270Z,984.83
2023-04-15T05:40:42.257Z,984.89
2023-04-15T05:41:42.246Z,984.90
2023-04-15T05:42:42.238Z,984.87
2023-04-15T05:43:42.298Z,984.95
2023-04-15T05:44:42.253Z,984.95
2023-04-15T05:45:42.213Z,984.91
2023-04-15T05:46:42.261Z,984.94
2023-04-15T05:47:42.218Z,984.97
2023-04-15T05:48:42.201Z,984.92
2023-04-15T05:49:42.168Z,984.99
2023-04-15T05:50:42.202Z,985.04
2023-04-15T05:51:42.175Z,984.97
2023-04-15T05:52:42.174Z,984.94
2023-04-15T05:53:42.166Z,984.96
2023-04-15T05:54:42.144Z,984.99
2023-04-15T05:55:42.152Z,984.95
2023-04-15T05:56:42.147Z,984.94
2023-04-15T05:57:42.113Z,984.96
2023-04-15T05:58:42.135Z,984.95
2023-04-15T05:59:42.124Z,984.98
2023-04-15T06:00:42.115Z,984.97
2023-04-15T06:01:42.155Z,984.94
2023-04-15T06:02:42.235Z,985.01
2023-04-15T06:03:42.194Z,984.93
2023-04-15T06:04:42.088Z,984.99
2023-04-15T06:05:42.063Z,984.98
2023-04-15T06:06:42.058Z,984.95
2023-04-15T06:07:42.082Z,984.94
2023-04-15T06:08:42.095Z,984.92
2023-04-15T06:09:42.027Z,984.92
2023-04-15T06:10:42.071Z,984.98
2023-04-15T06:11:42.011Z,984.95
2023-04-15T06:12:42.015Z,985.01
2023-04-15T06:13:42.034Z,984.97
2023-04-15T06:14:42.041Z,984.96
2023-04-15T06:15:41.995Z,985.02
2023-04-15T06:16:42.136Z,985.05
2023-04-15T06:17:42.068Z,984.97
2023-04-15T06:18:42.004Z,984.98
2023-04-15T06:19:41.958Z,984.94
2023-04-15T06:20:42.060Z,985.03
2023-04-15T06:21:41.948Z,985.04
2023-04-15T06:22:41.971Z,985.00
2023-04-15T06:23:41.940Z,984.99
2023-04-15T06:24:41.960Z,985.00
2023-04-15T06:25:41.945Z,985.00
2023-04-15T06:26:41.952Z,984.99
2023-04-15T06:27:41.910Z,985.01
2023-04-15T06:28:41.913Z,985.04
2023-04-15T06:29:41.890Z,985.06
2023-04-15T06:30:41.926Z,985.09
2023-04-15T06:31:41.938Z,985.09
2023-04-15T06:32:41.881Z,985.08
2023-04-15T06:33:41.878Z,985.15
2023-04-15T06:34:41.898Z,985.16
2023-04-15T06:35:41.857Z,985.15
2023-04-15T06:36:41.841Z,985.17
2023-04-15T06:37:41.838Z,985.18
2023-04-15T06:38:41.849Z,985.12
2023-04-15T06:39:41.818Z,985.17
2023-04-15T06:40:41.822Z,985.16
2023-04-15T06:41:41.812Z,985.15
2023-04-15T06:42:41.811Z,985.14
2023-04-15T06:43:41.799Z,985.11
2023-04-15T06:44:41.922Z,985.15
2023-04-15T06:45:41.811Z,985.15
2023-04-15T06:46:41.778Z,985.14
2023-04-15T06:47:41.808Z,985.13
2023-04-15T06:48:41.811Z,985.18
2023-04-15T06:49:41.767Z,985.19
2023-04-15T06:50:41.777Z,985.18
2023-04-15T06:51:41.762Z,985.21
2023-04-15T06:52:41.753Z,985.20
2023-04-15T06:53:41.734Z,985.22
2023-04-15T06:54:41.724Z,985.22
2023-04-15T06:55:41.709Z,985.24
2023-04-15T06:56:41.747Z,985.29
2023-04-15T06:57:41.712Z,985.29
2023-04-15T06:58:41.725Z,985.26
2023-04-15T06:59:41.689Z,985.26
2023-04-15T07:00:41.711Z,985.35
2023-04-15T07:01:41.696Z,985.32
2023-04-15T07:02:41.738Z,985.28
2023-04-15T07:03:41.751Z,985.30
2023-04-15T07:04:41.673Z,985.30
2023-04-15T07:05:41.628Z,985.23
2023-04-15T07:06:41.637Z,985.26
2023-04-15T07:07:41.633Z,985.26
2023-04-15T07:08:41.637Z,985.24
2023-04-15T07:09:41.616Z,985.32
2023-04-15T07:10:41.649Z,985.31
2023-04-15T07:11:41.588Z,985.31
2023-04-15T07:12:41.593Z,985.29
2023-04-15T07:13:41.590Z,985.30
2023-04-15T07:14:41.562Z,985.19
2023-04-15T07:15:41.553Z,985.30
2023-04-15T07:16:41.649Z,985.34
2023-04-15T07:17:41.601Z,985.33
2023-04-15T07:18:41.549Z,985.34
2023-04-15T07:19:41.541Z,985.28
2023-04-15T07:20:41.571Z,985.31
2023-04-15T07:21:42.103Z,985.28
2023-04-15T07:22:42.522Z,985.31
2023-04-15T07:23:41.519Z,985.25
2023-04-15T07:24:41.514Z,985.26
2023-04-15T07:25:41.497Z,985.22
2023-04-15T07:26:41.552Z,985.20
2023-04-15T07:27:41.490Z,985.29
2023-04-15T07:28:41.497Z,985.31
2023-04-15T07:29:41.464Z,985.27
2023-04-15T07:30:41.544Z,985.27
2023-04-15T07:31:42.471Z,985.27
2023-04-15T07:32:41.472Z,985.27
2023-04-15T07:33:41.468Z,985.28
2023-04-15T07:34:41.466Z,985.31
2023-04-15T07:35:41.420Z,985.26
2023-04-15T07:36:41.538Z,985.25
2023-04-15T07:37:41.418Z,985.31
2023-04-15T07:38:41.528Z,985.27
2023-04-15T07:39:41.408Z,985.26
2023-04-15T07:40:41.452Z,985.21
2023-04-15T07:41:41.390Z,985.21
2023-04-15T07:42:42.129Z,985.20
2023-04-15T07:43:41.468Z,985.18
2023-04-15T07:44:41.396Z,985.24
2023-04-15T07:45:42.180Z,985.26
2023-04-15T07:46:41.455Z,985.21
2023-04-15T07:47:41.357Z,985.24
2023-04-15T07:48:42.137Z,985.20
2023-04-15T07:49:42.186Z,985.19
2023-04-15T07:50:41.317Z,985.24
2023-04-15T07:51:41.365Z,985.25
2023-04-15T07:52:41.323Z,985.26
2023-04-15T07:53:41.321Z,985.24
2023-04-15T07:54:41.302Z,985.19
2023-04-15T07:55:41.305Z,985.21
2023-04-15T07:56:41.313Z,985.20
2023-04-15T07:57:41.289Z,985.26
2023-04-15T07:58:41.280Z,985.19
2023-04-15T07:59:41.259Z,985.22
2023-04-15T08:00:41.267Z,985.29
2023-04-15T08:01:41.253Z,985.28
2023-04-15T08:02:41.393Z,985.26
2023-04-15T08:03:41.325Z,985.26
2023-04-15T08:04:41.369Z,985.21
2023-04-15T08:05:42.151Z,985.21
2023-04-15T08:06:41.236Z,985.26
2023-04-15T08:07:41.225Z,985.21
2023-04-15T08:08:41.217Z,985.17
2023-04-15T08:09:41.248Z,985.21
2023-04-15T08:10:41.185Z,985.21
2023-04-15T08:11:41.165Z,985.18
2023-04-15T08:12:42.140Z,985.22
2023-04-15T08:13:41.175Z,985.15
2023-04-15T08:14:41.234Z,985.13
2023-04-15T08:15:41.204Z,985.12
2023-04-15T08:16:41.177Z,985.14
2023-04-15T08:17:41.198Z,985.12
2023-04-15T08:18:41.185Z,985.17
2023-04-15T08:19:41.220Z,985.16
2023-04-15T08:20:41.092Z,985.15
2023-04-15T08:21:41.146Z,985.15
2023-04-15T08:22:41.089Z,985.16
2023-04-15T08:23:41.100Z,985.23
2023-04-15T08:24:42.088Z,985.18
2023-04-15T08:25:41.085Z,985.21
2023-04-15T08:26:41.057Z,985.22
2023-04-15T08:27:41.068Z,985.22
2023-04-15T08:28:41.127Z,985.15
2023-04-15T08:29:41.049Z,985.26
2023-04-15T08:30:41.062Z,985.24
2023-04-15T08:31:41.105Z,985.21
2023-04-15T08:32:42.040Z,985.20
2023-04-15T08:33:41.115Z,985.18
2023-04-15T08:34:41.038Z,985.25
2023-04-15T08:35:41.011Z,985.12
2023-04-15T08:36:41.036Z,985.14
2023-04-15T08:37:40.997Z,985.18
2023-04-15T08:38:41.030Z,985.14
2023-04-15T08:39:41.623Z,985.20
2023-04-15T08:40:41.645Z,985.16
2023-04-15T08:41:40.967Z,985.18
2023-04-15T08:42:41.892Z,985.17
2023-04-15T08:43:40.951Z,985.12
2023-04-15T08:44:40.976Z,985.11
2023-04-15T08:45:40.917Z,985.17
2023-04-15T08:46:40.989Z,985.15
2023-04-15T08:47:40.992Z,985.16
2023-04-15T08:48:40.918Z,985.10
2023-04-15T08:49:40.915Z,985.20
2023-04-15T08:50:40.904Z,985.20
2023-04-15T08:51:41.648Z,985.25
2023-04-15T08:52:40.871Z,985.22
2023-04-15T08:53:40.896Z,985.21
2023-04-15T08:54:40.881Z,985.22
2023-04-15T08:55:40.865Z,985.27
2023-04-15T08:56:40.907Z,985.23
2023-04-15T08:57:40.881Z,985.25
2023-04-15T08:58:40.842Z,985.21
2023-04-15T08:59:40.895Z,985.16
2023-04-15T09:00:40.851Z,985.18
2023-04-15T09:01:41.009Z,985.15
2023-04-15T09:02:40.932Z,985.16
2023-04-15T09:03:40.952Z,985.15
2023-04-15T09:04:40.800Z,985.18
2023-04-15T09:05:40.776Z,985.19
2023-04-15T09:06:40.782Z,985.17
2023-04-15T09:07:40.826Z,985.19
2023-04-15T09:08:40.783Z,985.22
2023-04-15T09:09:40.788Z,985.19
2023-04-15T09:10:40.767Z,985.18
2023-04-15T09:11:40.889Z,985.18
2023-04-15T09:12:40.750Z,985.23
2023-04-15T09:13:40.741Z,985.19
2023-04-15T09:14:40.722Z,985.25
2023-04-15T09:15:40.722Z,985.21
2023-04-15T09:16:40.742Z,985.26
2023-04-15T09:17:40.789Z,985.29
2023-04-15T09:18:40.687Z,985.29
2023-04-15T09:19:40.693Z,985.24
2023-04-15T09:20:40.678Z,985.22
2023-04-15T09:21:40.686Z,985.26
2023-04-15T09:22:40.696Z,985.32
2023-04-15T09:23:40.665Z,985.29
2023-04-15T09:24:40.648Z,985.28
2023-04-15T09:25:40.652Z,985.30
2023-04-15T09:26:40.730Z,985.34
2023-04-15T09:27:40.736Z,985.33
2023-04-15T09:28:40.630Z,985.36
2023-04-15T09:29:40.698Z,985.30
2023-04-15T09:30:40.761Z,985.34
2023-04-15T09:31:40.656Z,985.36
2023-04-15T09:32:40.726Z,985.27
2023-04-15T09:33:40.588Z,985.30
2023-04-15T09:34:40.601Z,985.32
2023-04-15T09:35:40.605Z,985.35
2023-04-15T09:36:40.601Z,985.38
2023-04-15T09:37:40.586Z,985.45
2023-04-15T09:38:40.575Z,985.39
2023-04-15T09:39:41.565Z,985.39
2023-04-15T09:40:40.549Z,985.43
2023-04-15T09:41:40.603Z,985.46
2023-04-15T09:42:40.543Z,985.51
2023-04-15T09:43:40.613Z,985.48
2023-04-15T09:44:40.530Z,985.44
2023-04-15T09:45:40.512Z,985.45
2023-04-15T09:46:40.954Z,985.42
2023-04-15T09:47:40.554Z,985.47
2023-04-15T09:48:40.498Z,985.43
2023-04-15T09:49:40.510Z,985.48
2023-04-15T09:50:40.498Z,985.46
2023-04-15T09:51:41.278Z,985.45
2023-04-15T09:52:40.500Z,985.48
2023-04-15T09:53:40.453Z,985.42
2023-04-15T09:54:40.456Z,985.49
2023-04-15T09:55:40.475Z,985.51
2023-04-15T09:56:40.448Z,985.45
2023-04-15T09:57:40.482Z,985.46
2023-04-15T09:58:40.451Z,985.49
2023-04-15T09:59:40.444Z,985.50
2023-04-15T10:00:40.509Z,985.49
2023-04-15T10:01:40.492Z,985.52
2023-04-15T10:02:40.531Z,985.50
2023-04-15T10:03:40.459Z,985.56
2023-04-15T10:04:40.393Z,985.56
2023-04-15T10:05:40.378Z,985.58
2023-04-15T10:06:41.355Z,985.59
2023-04-15T10:07:40.376Z,985.49
2023-04-15T10:08:40.340Z,985.59
2023-04-15T10:09:40.346Z,985.58
2023-04-15T10:10:40.338Z,985.62
2023-04-15T10:11:40.317Z,985.64
2023-04-15T10:12:41.137Z,985.61
2023-04-15T10:13:40.321Z,985.61
2023-04-15T10:14:40.316Z,985.63
2023-04-15T10:15:40.354Z,985.67
2023-04-15T10:16:40.315Z,985.69
2023-04-15T10:17:41.691Z,985.66
2023-04-15T10:18:40.287Z,985.64
2023-04-15T10:19:40.272Z,985.67
2023-04-15T10:20:40.248Z,985.72
2023-04-15T10:21:40.250Z,985.74
2023-04-15T10:22:40.254Z,985.68
2023-04-15T10:23:40.227Z,985.76
2023-04-15T10:24:40.238Z,985.69
2023-04-15T10:25:40.213Z,985.69
2023-04-15T10:26:40.261Z,985.75
2023-04-15T10:27:40.269Z,985.68
2023-04-15T10:28:40.189Z,985.73
2023-04-15T10:29:40.204Z,985.70
2023-04-15T10:30:40.172Z,985.70
2023-04-15T10:31:40.209Z,985.65
2023-04-15T10:32:40.257Z,985.72
2023-04-15T10:33:40.168Z,985.72
2023-04-15T10:34:40.168Z,985.73
2023-04-15T10:35:40.151Z,985.77
2023-04-15T10:36:40.163Z,985.76
2023-04-15T10:37:40.170Z,985.74
2023-04-15T10:38:40.121Z,985.75
2023-04-15T10:39:40.131Z,985.79
2023-04-15T10:40:40.254Z,985.81
2023-04-15T10:41:40.153Z,985.81
2023-04-15T10:42:40.141Z,985.83
2023-04-15T10:43:40.099Z,985.89
2023-04-15T10:44:40.096Z,985.80
2023-04-15T10:45:40.216Z,985.80
2023-04-15T10:46:41.051Z,985.81
2023-04-15T10:47:40.131Z,985.86
2023-04-15T10:48:40.695Z,985.81
2023-04-15T10:49:40.053Z,985.80
2023-04-15T10:50:40.058Z,985.83
2023-04-15T10:51:41.274Z,985.84
2023-04-15T10:52:40.029Z,985.85
2023-04-15T10:53:40.025Z,985.89
2023-04-15T10:54:40.057Z,985.87
2023-04-15T10:55:40.035Z,985.95
2023-04-15T10:56:39.995Z,985.89
2023-04-15T10:57:40.060Z,985.90
2023-04-15T10:58:39.979Z,985.93
2023-04-15T10:59:39.963Z,985.95
2023-04-15T11:00:40.001Z,985.95
2023-04-15T11:01:40.024Z,986.01
2023-04-15T11:02:40.112Z,986.01
2023-04-15T11:03:40.229Z,986.01
2023-04-15T11:04:42.593Z,985.99
2023-04-15T11:05:40.969Z,986.03
2023-04-15T11:06:39.949Z,986.04
2023-04-15T11:07:39.902Z,986.03
2023-04-15T11:08:39.965Z,986.04
2023-04-15T11:09:39.896Z,986.02
2023-04-15T11:10:39.884Z,986.01
2023-04-15T11:11:39.890Z,986.05
2023-04-15T11:12:39.883Z,986.05
2023-04-15T11:13:39.870Z,986.08
2023-04-15T11:14:39.875Z,986.10
2023-04-15T11:15:39.844Z,986.05
2023-04-15T11:16:39.865Z,986.07
2023-04-15T11:17:39.863Z,986.06
2023-04-15T11:18:39.839Z,986.03
2023-04-15T11:19:39.844Z,986.05
2023-04-15T11:20:39.869Z,986.07
2023-04-15T11:21:39.814Z,986.11
2023-04-15T11:22:39.812Z,986.07
2023-04-15T11:23:39.936Z,986.05
2023-04-15T11:24:40.638Z,986.12
2023-04-15T11:25:40.078Z,986.08
2023-04-15T11:26:40.129Z,986.15
2023-04-15T11:27:39.778Z,986.23
2023-04-15T11:28:40.622Z,986.19
2023-04-15T11:29:40.617Z,986.23
2023-04-15T11:30:40.659Z,986.24
2023-04-15T11:31:39.790Z,986.21
2023-04-15T11:32:41.184Z,986.26
2023-04-15T11:33:39.765Z,986.28
2023-04-15T11:34:39.747Z,986.25
2023-04-15T11:35:39.805Z,986.24
2023-04-15T11:36:39.715Z,986.35
2023-04-15T11:37:40.611Z,986.31
2023-04-15T11:38:39.702Z,986.25
2023-04-15T11:39:39.691Z,986.29
2023-04-15T11:40:39.783Z,986.35
2023-04-15T11:41:39.667Z,986.29
2023-04-15T11:42:49.428Z,986.24
2023-04-15T11:43:41.692Z,986.30
2023-04-15T11:44:39.638Z,986.31
2023-04-15T11:45:39.716Z,986.30
2023-04-15T11:46:39.640Z,986.27
2023-04-15T11:47:39.656Z,986.27
2023-04-15T11:48:39.651Z,986.33
2023-04-15T11:49:39.797Z,986.36
2023-04-15T11:50:39.608Z,986.39
2023-04-15T11:51:39.600Z,986.39
2023-04-15T11:52:39.587Z,986.42
2023-04-15T11:53:39.593Z,986.39
2023-04-15T11:54:39.591Z,986.34
2023-04-15T11:55:39.589Z,986.41
2023-04-15T11:56:39.546Z,986.43
2023-04-15T11:57:39.549Z,986.40
2023-04-15T11:58:40.153Z,986.46
2023-04-15T12:00:40.516Z,986.40
2023-04-15T12:01:39.535Z,986.40
2023-04-15T12:02:39.592Z,986.45
2023-04-15T12:03:39.606Z,986.43
2023-04-15T12:04:39.647Z,986.45
2023-04-15T12:05:39.489Z,986.46
2023-04-15T12:06:39.519Z,986.46
2023-04-15T12:07:39.486Z,986.52
2023-04-15T12:08:39.479Z,986.47
2023-04-15T12:09:39.473Z,986.53
2023-04-15T12:10:39.483Z,986.53
2023-04-15T12:11:39.468Z,986.53
2023-04-15T12:12:39.476Z,986.53
2023-04-15T12:13:39.466Z,986.54
2023-04-15T12:14:40.180Z,986.56
2023-04-15T12:15:39.499Z,986.51
2023-04-15T12:16:49.149Z,986.56
2023-04-15T12:17:51.379Z,986.60
2023-04-15T12:18:41.417Z,986.58
2023-04-15T12:19:39.646Z,986.62
2023-04-15T12:20:39.377Z,986.58
2023-04-15T12:21:39.388Z,986.61
2023-04-15T12:22:39.381Z,986.60
2023-04-15T12:23:39.373Z,986.65
2023-04-15T12:24:39.391Z,986.64
2023-04-15T12:25:40.347Z,986.66
2023-04-15T12:26:39.349Z,986.66
2023-04-15T12:27:39.358Z,986.73
2023-04-15T12:28:39.351Z,986.67
2023-04-15T12:29:39.367Z,986.70
2023-04-15T12:30:39.309Z,986.66
2023-04-15T12:31:39.407Z,986.72
2023-04-15T12:32:40.400Z,986.76
2023-04-15T12:33:40.307Z,986.72
2023-04-15T12:34:39.310Z,986.78
2023-04-15T12:35:39.304Z,986.73
2023-04-15T12:36:39.277Z,986.80
2023-04-15T12:37:39.266Z,986.75
2023-04-15T12:38:39.347Z,986.88
2023-04-15T12:39:39.265Z,986.83
2023-04-15T12:40:40.246Z,986.91
2023-04-15T12:41:39.269Z,986.88
2023-04-15T12:42:39.258Z,986.84
2023-04-15T12:43:39.262Z,986.92
2023-04-15T12:44:39.231Z,986.91
2023-04-15T12:45:39.218Z,986.96
2023-04-15T12:46:39.251Z,986.91
2023-04-15T12:47:39.207Z,986.93
2023-04-15T12:48:39.286Z,986.99
2023-04-15T12:49:39.179Z,986.94
2023-04-15T12:50:39.191Z,986.97
2023-04-15T12:51:39.204Z,986.99
2023-04-15T12:52:39.187Z,986.90
2023-04-15T12:53:39.179Z,986.99
2023-04-15T12:54:39.153Z,987.05
2023-04-15T12:55:40.190Z,987.00
2023-04-15T12:56:39.150Z,987.05
2023-04-15T12:57:39.125Z,987.02
2023-04-15T12:58:39.169Z,987.01
2023-04-15T12:59:39.135Z,986.93
2023-04-15T13:00:39.138Z,986.96
2023-04-15T13:01:39.113Z,986.99
2023-04-15T13:02:39.229Z,987.04